createdAt,value
2023-02-13T00:01:29.982Z,6.85
2023-02-13T00:03:58.254Z,6.60
2023-02-13T00:06:26.549Z,7.08
2023-02-13T00:08:54.814Z,6.74
2023-02-13T00:11:24.401Z,6.61
2023-02-13T00:13:52.626Z,6.82
2023-02-13T00:16:20.946Z,6.62
2023-02-13T00:18:49.180Z,6.74
2023-02-13T00:21:17.526Z,6.78
2023-02-13T00:23:45.778Z,6.49
2023-02-13T00:26:17.469Z,6.08
2023-02-13T00:28:47.465Z,6.16
2023-02-13T00:31:17.219Z,6.42
2023-02-13T00:33:45.590Z,6.20
2023-02-13T00:36:15.585Z,6.40
2023-02-13T00:38:44.546Z,5.87
2023-02-13T00:41:13.102Z,6.27
2023-02-13T00:43:41.398Z,6.18
2023-02-13T00:46:11.477Z,6.83
2023-02-13T00:48:40.248Z,7.63
2023-02-13T00:51:09.178Z,7.26
2023-02-13T00:53:38.297Z,6.54
2023-02-13T00:56:07.792Z,6.61
2023-02-13T00:58:36.172Z,7.16
2023-02-13T01:01:04.622Z,6.77
2023-02-13T01:03:34.404Z,7.30
2023-02-13T01:06:02.898Z,7.01
2023-02-13T01:08:31.310Z,6.50
2023-02-13T01:10:59.949Z,6.58
2023-02-13T01:13:28.398Z,5.81
2023-02-13T01:15:56.843Z,6.06
2023-02-13T01:18:25.519Z,5.67
2023-02-13T01:20:59.882Z,6.03
2023-02-13T01:23:31.720Z,6.31
2023-02-13T01:26:00.238Z,5.80
2023-02-13T01:28:28.716Z,6.22
2023-02-13T01:30:58.389Z,6.22
2023-02-13T01:33:28.630Z,6.08
2023-02-13T01:35:58.396Z,6.68
2023-02-13T01:38:26.824Z,7.45
2023-02-13T01:40:55.922Z,7.59
2023-02-13T01:43:24.500Z,7.17
2023-02-13T01:45:55.862Z,7.21
2023-02-13T01:48:26.078Z,7.50
2023-02-13T01:50:58.679Z,6.13
2023-02-13T01:53:33.403Z,6.25
2023-02-13T01:56:08.422Z,6.45
2023-02-13T01:58:39.919Z,6.97
2023-02-13T02:01:09.644Z,6.95
2023-02-13T02:03:39.186Z,6.68
2023-02-13T02:06:13.192Z,6.60
2023-02-13T02:08:41.713Z,5.94
2023-02-13T02:11:12.860Z,6.84
2023-02-13T02:13:41.264Z,6.25
2023-02-13T02:16:09.521Z,6.28
2023-02-13T02:18:37.803Z,6.42
2023-02-13T02:21:38.682Z,6.23
2023-02-13T02:24:23.197Z,6.49
2023-02-13T02:27:11.405Z,6.59
2023-02-13T02:30:18.254Z,6.55
2023-02-13T02:33:30.822Z,6.44
2023-02-13T02:36:10.593Z,6.71
2023-02-13T02:38:48.532Z,7.02
2023-02-13T02:41:35.496Z,6.54
2023-02-13T02:44:11.191Z,6.38
2023-02-13T02:47:02.791Z,7.10
2023-02-13T02:49:50.890Z,6.74
2023-02-13T02:52:21.282Z,6.44
2023-02-13T02:55:07.922Z,6.26
2023-02-13T02:57:57.596Z,7.05
2023-02-13T03:00:44.586Z,6.84
2023-02-13T03:03:36.101Z,6.42
2023-02-13T03:06:12.293Z,6.63
2023-02-13T03:09:01.271Z,6.87
2023-02-13T03:11:49.403Z,7.11
2023-02-13T03:14:21.733Z,5.76
2023-02-13T03:17:08.306Z,6.83
2023-02-13T03:20:05.481Z,6.58
2023-02-13T03:22:39.279Z,6.16
2023-02-13T03:25:14.898Z,5.78
2023-02-13T03:28:05.391Z,5.84
2023-02-13T03:30:41.201Z,5.83
2023-02-13T03:33:20.463Z,6.19
2023-02-13T03:36:09.168Z,6.55
2023-02-13T03:38:43.625Z,6.47
2023-02-13T03:41:22.264Z,6.49
2023-02-13T03:43:59.431Z,7.08
2023-02-13T03:46:28.604Z,6.57
2023-02-13T03:49:11.345Z,6.03
2023-02-13T03:51:42.458Z,5.94
2023-02-13T03:54:18.122Z,6.01
2023-02-13T03:57:06.187Z,6.31
2023-02-13T03:59:36.915Z,6.08
2023-02-13T04:02:06.860Z,6.11
2023-02-13T04:04:41.639Z,5.89
2023-02-13T04:07:12.135Z,6.00
2023-02-13T04:09:42.440Z,5.51
2023-02-13T04:12:17.109Z,5.90
2023-02-13T04:14:49.257Z,6.32
2023-02-13T04:17:21.181Z,5.99
2023-02-13T04:19:49.569Z,5.83
2023-02-13T04:22:17.937Z,6.13
2023-02-13T04:24:46.900Z,5.71
2023-02-13T04:27:16.982Z,6.18
2023-02-13T04:29:45.456Z,5.78
2023-02-13T04:32:14.295Z,6.18
2023-02-13T04:34:42.507Z,6.29
2023-02-13T04:37:10.793Z,6.28
2023-02-13T04:39:39.031Z,6.16
2023-02-13T04:42:07.343Z,6.26
2023-02-13T04:44:36.960Z,6.31
2023-02-13T04:47:05.305Z,6.01
2023-02-13T04:49:33.624Z,6.85
2023-02-13T04:52:01.949Z,6.44
2023-02-13T04:54:30.289Z,6.42
2023-02-13T04:56:58.546Z,6.80
2023-02-13T04:59:26.843Z,6.94
2023-02-13T05:01:56.510Z,7.19
2023-02-13T05:04:25.427Z,7.55
2023-02-13T05:06:53.842Z,7.75
2023-02-13T05:09:22.175Z,8.02
2023-02-13T05:11:52.684Z,7.21
2023-02-13T05:14:21.345Z,6.54
2023-02-13T05:16:50.721Z,7.12
2023-02-13T05:19:20.413Z,7.73
2023-02-13T05:22:06.191Z,7.86
2023-02-13T05:24:34.480Z,8.10
2023-02-13T05:27:02.775Z,7.71
2023-02-13T05:29:31.072Z,8.00
2023-02-13T05:32:00.884Z,7.22
2023-02-13T05:34:30.740Z,7.36
2023-02-13T05:36:59.145Z,7.53
2023-02-13T05:39:27.547Z,7.11
2023-02-13T05:41:55.948Z,7.25
2023-02-13T05:44:24.276Z,7.25
2023-02-13T05:46:53.306Z,7.53
2023-02-13T05:49:22.923Z,7.73
2023-02-13T05:51:53.167Z,7.98
2023-02-13T05:54:21.581Z,8.16
2023-02-13T05:56:49.849Z,8.23
2023-02-13T05:59:18.239Z,8.12
2023-02-13T06:01:46.548Z,7.88
2023-02-13T06:04:15.043Z,8.12
2023-02-13T06:06:43.437Z,8.22
2023-02-13T06:09:13.348Z,8.07
2023-02-13T06:11:41.692Z,7.92
2023-02-13T06:14:10.014Z,8.44
2023-02-13T06:16:38.256Z,8.04
2023-02-13T06:19:06.593Z,8.55
2023-02-13T06:21:37.887Z,8.35
2023-02-13T06:24:06.998Z,8.45
2023-02-13T06:26:36.692Z,8.71
2023-02-13T06:29:06.513Z,8.35
2023-02-13T06:31:35.151Z,8.72
2023-02-13T06:34:03.487Z,8.72
2023-02-13T06:36:31.946Z,8.62
2023-02-13T06:39:00.244Z,8.74
2023-02-13T06:41:28.569Z,8.46
2023-02-13T06:43:58.226Z,8.17
2023-02-13T06:46:26.554Z,8.52
2023-02-13T06:48:55.160Z,8.35
2023-02-13T06:51:23.404Z,8.26
2023-02-13T06:53:51.716Z,7.66
2023-02-13T06:56:19.997Z,7.80
2023-02-13T06:58:48.226Z,8.35
2023-02-13T07:01:17.838Z,8.44
2023-02-13T07:03:47.704Z,8.57
2023-02-13T07:06:18.799Z,8.79
2023-02-13T07:08:47.187Z,8.92
2023-02-13T07:11:19.155Z,9.04
2023-02-13T07:13:47.382Z,8.53
2023-02-13T07:16:17.412Z,8.67
2023-02-13T07:18:45.742Z,8.66
2023-02-13T07:21:14.049Z,9.04
2023-02-13T07:23:42.264Z,9.06
2023-02-13T07:26:12.069Z,8.78
2023-02-13T07:28:40.465Z,8.72
2023-02-13T07:31:08.871Z,8.18
2023-02-13T07:33:38.968Z,8.76
2023-02-13T07:36:08.115Z,8.63
2023-02-13T07:38:36.400Z,8.71
2023-02-13T07:41:05.178Z,8.73
2023-02-13T07:43:33.613Z,8.73
2023-02-13T07:46:03.359Z,8.29
2023-02-13T07:48:31.750Z,8.37
2023-02-13T07:51:03.252Z,8.46
2023-02-13T07:53:32.669Z,8.67
2023-02-13T07:56:00.871Z,8.28
2023-02-13T07:58:29.115Z,8.11
2023-02-13T08:00:57.359Z,7.75
2023-02-13T08:03:25.606Z,8.27
2023-02-13T08:05:53.916Z,8.65
2023-02-13T08:08:23.557Z,8.65
2023-02-13T08:11:09.467Z,8.85
2023-02-13T08:13:38.492Z,8.97
2023-02-13T08:16:06.872Z,8.38
2023-02-13T08:18:35.114Z,8.00
2023-02-13T08:21:03.339Z,8.99
2023-02-13T08:23:33.034Z,8.27
2023-02-13T08:26:02.290Z,7.26
2023-02-13T08:28:30.861Z,7.38
2023-02-13T08:30:59.210Z,7.40
2023-02-13T08:33:27.465Z,7.73
2023-02-13T08:35:55.805Z,7.04
2023-02-13T08:38:24.436Z,7.10
2023-02-13T08:40:54.016Z,7.75
2023-02-13T08:43:22.240Z,8.12
2023-02-13T08:45:50.514Z,7.98
2023-02-13T08:48:18.821Z,7.21
2023-02-13T08:50:47.029Z,7.83
2023-02-13T08:53:15.231Z,8.70
2023-02-13T08:55:43.440Z,8.76
2023-02-13T08:58:13.429Z,9.30
2023-02-13T09:00:41.626Z,8.72
2023-02-13T09:03:10.510Z,9.48
2023-02-13T09:05:38.824Z,8.41
2023-02-13T09:08:08.193Z,8.13
2023-02-13T09:10:36.408Z,7.31
2023-02-13T09:13:04.773Z,7.23
2023-02-13T09:15:34.816Z,7.15
2023-02-13T09:18:03.047Z,8.10
2023-02-13T09:20:31.288Z,8.64
2023-02-13T09:22:59.492Z,7.49
2023-02-13T09:25:27.789Z,8.00
2023-02-13T09:27:56.051Z,8.28
2023-02-13T09:30:24.575Z,8.73
2023-02-13T09:32:55.619Z,8.78
2023-02-13T09:35:24.516Z,8.87
2023-02-13T09:37:52.762Z,8.81
2023-02-13T09:40:25.526Z,8.38
2023-02-13T09:42:54.085Z,8.90
2023-02-13T09:45:23.146Z,9.54
2023-02-13T09:47:51.634Z,8.55
2023-02-13T09:50:24.043Z,8.15
2023-02-13T09:52:53.527Z,8.72
2023-02-13T09:55:24.469Z,8.49
2023-02-13T09:57:56.724Z,8.93
2023-02-13T10:00:28.808Z,7.78
2023-02-13T10:03:19.473Z,8.55
2023-02-13T10:05:57.733Z,8.85
2023-02-13T10:08:40.160Z,8.31
2023-02-13T10:11:16.744Z,8.41
2023-02-13T10:14:06.002Z,8.43
2023-02-13T10:16:36.937Z,8.71
2023-02-13T10:19:10.081Z,9.11
2023-02-13T10:21:43.810Z,8.89
2023-02-13T10:24:14.084Z,8.47
2023-02-13T10:26:45.469Z,8.99
2023-02-13T10:29:36.323Z,9.17
2023-02-13T10:32:08.395Z,8.92
2023-02-13T10:34:39.948Z,9.59
2023-02-13T10:37:15.554Z,9.20
2023-02-13T10:39:46.548Z,8.31
2023-02-13T10:42:23.838Z,8.95
2023-02-13T10:45:01.130Z,9.06
2023-02-13T10:47:44.470Z,9.07
2023-02-13T10:50:21.885Z,9.52
2023-02-13T10:52:58.413Z,9.72
2023-02-13T10:55:46.666Z,9.18
2023-02-13T10:58:19.596Z,8.43
2023-02-13T11:00:50.573Z,8.98
2023-02-13T11:03:21.131Z,8.91
2023-02-13T11:05:49.978Z,9.32
2023-02-13T11:08:23.078Z,8.60
2023-02-13T11:10:51.864Z,8.99
2023-02-13T11:13:22.036Z,8.92
2023-02-13T11:16:02.197Z,9.37
2023-02-13T11:18:34.210Z,9.01
2023-02-13T11:21:07.897Z,8.49
2023-02-13T11:23:39.910Z,8.58
2023-02-13T11:26:10.022Z,8.49
2023-02-13T11:28:40.425Z,8.37
2023-02-13T11:31:20.790Z,9.59
2023-02-13T11:33:49.258Z,9.93
2023-02-13T11:36:23.543Z,9.40
2023-02-13T11:39:00.954Z,10.45
2023-02-13T11:41:29.878Z,9.18
2023-02-13T11:44:02.176Z,9.63
2023-02-13T11:46:31.812Z,8.94
2023-02-13T11:49:02.736Z,9.98
2023-02-13T11:51:41.196Z,9.52
2023-02-13T11:54:24.782Z,9.22
2023-02-13T11:57:04.342Z,9.09
2023-02-13T11:59:39.967Z,8.26
2023-02-13T12:02:20.051Z,8.59
2023-02-13T12:04:49.753Z,9.22
2023-02-13T12:07:21.398Z,8.95
2023-02-13T12:09:54.644Z,8.71
2023-02-13T12:12:28.717Z,9.28
2023-02-13T12:14:57.800Z,10.58
2023-02-13T12:17:32.577Z,9.12
2023-02-13T12:20:01.479Z,9.77
2023-02-13T12:22:34.975Z,9.50
2023-02-13T12:25:28.991Z,9.21
2023-02-13T12:28:07.411Z,9.15
2023-02-13T12:30:54.555Z,9.05
2023-02-13T12:33:33.992Z,8.91
2023-02-13T12:36:03.898Z,9.49
2023-02-13T12:38:44.310Z,8.86
2023-02-13T12:41:19.600Z,9.23
2023-02-13T12:44:16.918Z,8.72
2023-02-13T12:46:53.818Z,10.49
2023-02-13T12:49:37.052Z,9.70
2023-02-13T12:52:19.974Z,9.23
2023-02-13T12:54:55.934Z,9.50
2023-02-13T12:57:38.044Z,9.89
2023-02-13T13:00:31.281Z,9.19
2023-02-13T13:03:17.643Z,9.40
2023-02-13T13:06:11.008Z,9.49
2023-02-13T13:08:48.620Z,9.47
2023-02-13T13:11:28.991Z,9.45
2023-02-13T13:14:06.485Z,9.36
2023-02-13T13:16:43.010Z,9.63
2023-02-13T13:19:17.548Z,10.14
2023-02-13T13:21:49.282Z,9.37
2023-02-13T13:24:28.002Z,9.85
2023-02-13T13:26:57.348Z,9.88
2023-02-13T13:29:28.840Z,8.89
2023-02-13T13:31:58.935Z,9.32
2023-02-13T13:34:28.504Z,10.63
2023-02-13T13:37:01.940Z,9.93
2023-02-13T13:39:38.144Z,10.71
2023-02-13T13:42:13.410Z,9.95
2023-02-13T13:45:16.752Z,9.32
2023-02-13T13:48:02.888Z,10.03
2023-02-13T13:50:32.936Z,9.94
2023-02-13T13:53:10.618Z,9.68
2023-02-13T13:56:09.362Z,9.92
2023-02-13T13:58:40.479Z,9.50
2023-02-13T14:01:22.344Z,9.59
2023-02-13T14:03:51.656Z,9.18
2023-02-13T14:06:21.630Z,9.64
2023-02-13T14:09:10.680Z,10.07
2023-02-13T14:11:46.960Z,9.83
2023-02-13T14:14:49.194Z,10.44
2023-02-13T14:17:41.568Z,10.49
2023-02-13T14:20:22.843Z,9.21
2023-02-13T14:22:51.138Z,9.37
2023-02-13T14:25:25.328Z,9.29
2023-02-13T14:27:58.380Z,9.21
2023-02-13T14:30:31.545Z,9.19
2023-02-13T14:33:03.445Z,9.96
2023-02-13T14:35:34.002Z,9.38
2023-02-13T14:38:03.701Z,9.42
2023-02-13T14:40:43.995Z,9.62
2023-02-13T14:43:34.099Z,9.10
2023-02-13T14:46:09.177Z,9.44
2023-02-13T14:48:43.296Z,8.56
2023-02-13T14:51:21.957Z,9.34
2023-02-13T14:53:54.133Z,9.34
2023-02-13T14:56:23.675Z,9.36
2023-02-13T14:58:54.302Z,9.88
2023-02-13T15:01:26.557Z,9.84
2023-02-13T15:04:00.358Z,9.29
2023-02-13T15:06:31.231Z,8.91
2023-02-13T15:09:01.543Z,9.11
2023-02-13T15:11:37.998Z,8.90
2023-02-13T15:14:26.352Z,8.94
2023-02-13T15:16:57.236Z,8.94
2023-02-13T15:19:28.334Z,9.24
2023-02-13T15:21:59.230Z,9.64
2023-02-13T15:24:28.379Z,10.01
2023-02-13T15:27:01.735Z,10.33
2023-02-13T15:29:40.939Z,9.39
2023-02-13T15:32:20.107Z,8.72
2023-02-13T15:34:50.026Z,8.93
2023-02-13T15:37:25.417Z,8.59
2023-02-13T15:39:53.693Z,9.05
2023-02-13T15:42:22.204Z,9.75
2023-02-13T15:44:52.489Z,8.80
2023-02-13T15:47:26.420Z,9.45
2023-02-13T15:49:56.181Z,8.05
2023-02-13T15:52:28.438Z,8.48
2023-02-13T15:54:57.613Z,8.79
2023-02-13T15:57:26.912Z,9.18
2023-02-13T15:59:56.806Z,8.96
2023-02-13T16:02:27.168Z,9.23
2023-02-13T16:04:57.090Z,8.35
2023-02-13T16:07:25.336Z,8.97
2023-02-13T16:09:53.772Z,8.31
2023-02-13T16:12:24.400Z,8.74
2023-02-13T16:14:53.723Z,9.23
2023-02-13T16:17:28.452Z,8.73
2023-02-13T16:20:01.282Z,8.61
2023-02-13T16:22:35.077Z,9.31
2023-02-13T16:25:17.441Z,8.65
2023-02-13T16:27:46.998Z,9.02
2023-02-13T16:30:26.984Z,9.70
2023-02-13T16:33:27.995Z,8.96
2023-02-13T16:35:58.780Z,9.02
2023-02-13T16:38:37.139Z,8.99
2023-02-13T16:41:06.501Z,9.42
2023-02-13T16:43:39.695Z,9.45
2023-02-13T16:46:13.065Z,9.38
2023-02-13T16:48:41.366Z,8.98
2023-02-13T16:51:11.673Z,9.30
2023-02-13T16:53:40.351Z,8.43
2023-02-13T16:56:09.968Z,8.63
2023-02-13T16:58:38.340Z,8.77
2023-02-13T17:01:06.701Z,8.67
2023-02-13T17:03:34.985Z,8.57
2023-02-13T17:06:04.022Z,8.35
2023-02-13T17:08:33.649Z,8.51
2023-02-13T17:11:04.411Z,8.63
2023-02-13T17:13:33.666Z,8.25
2023-02-13T17:16:01.968Z,9.32
2023-02-13T17:18:30.278Z,8.10
2023-02-13T17:20:58.732Z,8.56
2023-02-13T17:23:27.234Z,8.78
2023-02-13T17:25:56.805Z,8.74
2023-02-13T17:28:26.816Z,9.09
2023-02-13T17:30:57.235Z,10.12
2023-02-13T17:33:27.185Z,8.86
2023-02-13T17:35:55.469Z,8.43
2023-02-13T17:38:24.111Z,9.45
2023-02-13T17:40:52.366Z,8.33
2023-02-13T17:43:21.975Z,8.39
2023-02-13T17:45:50.896Z,8.96
2023-02-13T17:48:19.191Z,8.77
2023-02-13T17:50:52.482Z,9.73
2023-02-13T17:53:23.304Z,8.88
2023-02-13T17:55:51.731Z,8.55
2023-02-13T17:58:20.144Z,9.24
2023-02-13T18:00:49.880Z,8.24
2023-02-13T18:03:18.121Z,8.22
2023-02-13T18:05:48.674Z,8.08
2023-02-13T18:08:16.732Z,8.68
2023-02-13T18:10:44.893Z,8.98
2023-02-13T18:13:13.221Z,8.86
2023-02-13T18:15:43.580Z,8.07
2023-02-13T18:18:15.136Z,7.94
2023-02-13T18:20:43.539Z,8.21
2023-02-13T18:23:11.804Z,7.79
2023-02-13T18:25:40.161Z,7.89
2023-02-13T18:28:08.421Z,7.66
2023-02-13T18:30:36.644Z,7.44
2023-02-13T18:33:05.163Z,7.89
2023-02-13T18:35:36.545Z,8.13
2023-02-13T18:38:05.038Z,8.23
2023-02-13T18:40:33.257Z,8.19
2023-02-13T18:43:01.487Z,8.84
2023-02-13T18:45:29.855Z,8.07
2023-02-13T18:47:58.137Z,8.14
2023-02-13T18:50:26.364Z,8.60
2023-02-13T18:52:55.965Z,7.81
2023-02-13T18:55:24.174Z,8.23
2023-02-13T18:57:53.392Z,8.01
2023-02-13T19:00:23.515Z,7.69
2023-02-13T19:02:51.904Z,7.79
2023-02-13T19:05:20.306Z,8.11
2023-02-13T19:07:48.663Z,8.07
2023-02-13T19:10:18.598Z,8.72
2023-02-13T19:12:46.933Z,8.54
2023-02-13T19:15:16.401Z,8.78
2023-02-13T19:17:45.327Z,8.38
2023-02-13T19:20:16.662Z,8.63
2023-02-13T19:22:45.264Z,8.45
2023-02-13T19:25:13.632Z,8.92
2023-02-13T19:27:43.425Z,8.49
2023-02-13T19:30:12.613Z,9.21
2023-02-13T19:32:41.612Z,8.64
2023-02-13T19:35:09.870Z,8.02
2023-02-13T19:37:43.901Z,7.73
2023-02-13T19:40:13.677Z,7.53
2023-02-13T19:42:43.387Z,7.64
2023-02-13T19:45:12.056Z,7.69
2023-02-13T19:47:40.358Z,8.15
2023-02-13T19:50:09.302Z,7.35
2023-02-13T19:52:38.003Z,7.40
2023-02-13T19:55:06.640Z,7.86
2023-02-13T19:57:35.000Z,7.34
2023-02-13T20:00:05.274Z,7.84
2023-02-13T20:02:33.557Z,8.14
2023-02-13T20:05:07.008Z,8.74
2023-02-13T20:07:35.297Z,7.19
2023-02-13T20:10:03.659Z,7.55
2023-02-13T20:12:31.962Z,6.95
2023-02-13T20:15:00.375Z,7.52
2023-02-13T20:17:30.121Z,7.85
2023-02-13T20:19:58.963Z,8.17
2023-02-13T20:22:27.310Z,8.89
2023-02-13T20:24:55.634Z,8.02
2023-02-13T20:27:23.935Z,7.38
2023-02-13T20:29:58.879Z,7.26
2023-02-13T20:32:36.239Z,6.82
2023-02-13T20:35:04.800Z,7.57
2023-02-13T20:37:33.170Z,8.15
2023-02-13T20:40:01.473Z,7.66
2023-02-13T20:42:29.698Z,7.63
2023-02-13T20:44:57.963Z,6.97
2023-02-13T20:47:26.237Z,7.32
2023-02-13T20:49:55.834Z,7.92
2023-02-13T20:52:24.095Z,7.91
2023-02-13T20:54:52.341Z,7.48
2023-02-13T20:57:20.651Z,7.21
2023-02-13T20:59:48.871Z,6.42
2023-02-13T21:02:19.521Z,7.11
2023-02-13T21:04:47.568Z,7.75
2023-02-13T21:07:17.172Z,8.51
2023-02-13T21:09:45.532Z,8.49
2023-02-13T21:12:14.474Z,8.62
2023-02-13T21:14:42.983Z,8.44
2023-02-13T21:17:11.214Z,9.02
2023-02-13T21:19:39.747Z,8.08
2023-02-13T21:22:14.244Z,8.66
2023-02-13T21:24:44.294Z,9.00
2023-02-13T21:27:12.490Z,9.03
2023-02-13T21:29:40.732Z,8.54
2023-02-13T21:32:09.084Z,8.89
2023-02-13T21:34:37.376Z,8.37
2023-02-13T21:37:05.610Z,8.99
2023-02-13T21:39:34.368Z,8.85
2023-02-13T21:42:05.871Z,8.17
2023-02-13T21:44:34.091Z,8.48
2023-02-13T21:47:02.423Z,7.81
2023-02-13T21:49:30.674Z,8.69
2023-02-13T21:51:58.922Z,8.65
2023-02-13T21:54:27.304Z,8.12
2023-02-13T21:56:55.511Z,7.66
2023-02-13T21:59:25.106Z,7.92
2023-02-13T22:01:54.177Z,7.06
2023-02-13T22:04:22.657Z,7.97
2023-02-13T22:06:52.072Z,7.51
2023-02-13T22:09:21.486Z,7.60
2023-02-13T22:11:51.777Z,8.07
2023-02-13T22:14:20.079Z,7.87
2023-02-13T22:16:51.308Z,6.32
2023-02-13T22:19:20.278Z,6.98
2023-02-13T22:21:48.589Z,7.33
2023-02-13T22:24:16.833Z,7.37
2023-02-13T22:26:46.226Z,6.82
2023-02-13T22:29:17.711Z,7.90
2023-02-13T22:31:46.100Z,8.25
2023-02-13T22:34:15.999Z,8.30
2023-02-13T22:36:44.337Z,7.73
2023-02-13T22:39:13.287Z,8.23
2023-02-13T22:41:44.433Z,8.25
2023-02-13T22:44:12.688Z,8.48
2023-02-13T22:46:40.963Z,8.27
2023-02-13T22:49:09.229Z,7.99
2023-02-13T22:51:38.824Z,8.17
2023-02-13T22:54:07.583Z,8.45
2023-02-13T22:56:36.181Z,7.97
2023-02-13T22:59:05.063Z,8.07
2023-02-13T23:01:33.332Z,7.31
2023-02-13T23:04:01.602Z,8.12
2023-02-13T23:06:29.933Z,7.60
2023-02-13T23:08:59.502Z,7.84
2023-02-13T23:11:46.251Z,7.93
2023-02-13T23:14:14.664Z,8.15
2023-02-13T23:17:01.639Z,7.72
2023-02-13T23:19:30.455Z,7.53
2023-02-13T23:21:58.785Z,7.80
2023-02-13T23:24:28.870Z,7.67
2023-02-13T23:26:57.126Z,7.39
2023-02-13T23:29:25.481Z,8.04
2023-02-13T23:31:53.988Z,8.03
2023-02-13T23:34:22.322Z,7.67
2023-02-13T23:36:50.570Z,7.99
2023-02-13T23:39:19.821Z,7.81
2023-02-13T23:41:49.397Z,8.26
2023-02-13T23:44:17.688Z,8.07
2023-02-13T23:46:45.994Z,8.47
2023-02-13T23:49:14.390Z,8.53
2023-02-13T23:51:42.579Z,8.32
2023-02-13T23:54:15.380Z,8.35
2023-02-13T23:56:43.744Z,8.42
2023-02-13T23:59:13.637Z,8.46
